sensor_id;sensor_type;location;lat;lon;timestamp;temperature;humidity
14182;DHT22;7171;50.936;6.764;2023-08-06T00:00:27;16.70;99.90
14182;DHT22;7171;50.936;6.764;2023-08-06T00:02:54;16.70;99.90
14182;DHT22;7171;50.936;6.764;2023-08-06T00:05:21;16.70;99.90
14182;DHT22;7171;50.936;6.764;2023-08-06T00:07:48;16.70;99.90
14182;DHT22;7171;50.936;6.764;2023-08-06T00:10:14;16.70;99.90
14182;DHT22;7171;50.936;6.764;2023-08-06T00:12:41;16.70;99.90
14182;DHT22;7171;50.936;6.764;2023-08-06T00:15:09;16.70;99.90
14182;DHT22;7171;50.936;6.764;2023-08-06T00:17:37;16.70;99.90
14182;DHT22;7171;50.936;6.764;2023-08-06T00:20:05;16.60;99.90
14182;DHT22;7171;50.936;6.764;2023-08-06T00:22:32;16.60;99.90
14182;DHT22;7171;50.936;6.764;2023-08-06T00:24:59;16.60;99.90
14182;DHT22;7171;50.936;6.764;2023-08-06T00:27:26;16.60;99.90
14182;DHT22;7171;50.936;6.764;2023-08-06T00:29:53;16.60;99.90
14182;DHT22;7171;50.936;6.764;2023-08-06T00:32:20;16.60;99.90
14182;DHT22;7171;50.936;6.764;2023-08-06T00:34:48;16.60;99.90
14182;DHT22;7171;50.936;6.764;2023-08-06T00:37:15;16.50;99.90
14182;DHT22;7171;50.936;6.764;2023-08-06T00:39:43;16.50;99.90
14182;DHT22;7171;50.936;6.764;2023-08-06T00:42:10;16.50;99.90
14182;DHT22;7171;50.936;6.764;2023-08-06T00:44:37;16.50;99.90
14182;DHT22;7171;50.936;6.764;2023-08-06T00:47:05;16.50;99.90
14182;DHT22;7171;50.936;6.764;2023-08-06T00:49:32;16.40;99.90
14182;DHT22;7171;50.936;6.764;2023-08-06T00:52:01;16.40;99.90
14182;DHT22;7171;50.936;6.764;2023-08-06T00:54:29;16.40;99.90
14182;DHT22;7171;50.936;6.764;2023-08-06T00:56:56;16.40;99.90
14182;DHT22;7171;50.936;6.764;2023-08-06T00:59:24;16.40;99.90
14182;DHT22;7171;50.936;6.764;2023-08-06T01:01:51;16.40;99.90
14182;DHT22;7171;50.936;6.764;2023-08-06T01:04:19;16.40;99.90
14182;DHT22;7171;50.936;6.764;2023-08-06T01:06:48;16.40;99.90
14182;DHT22;7171;50.936;6.764;2023-08-06T01:09:25;16.40;99.90
14182;DHT22;7171;50.936;6.764;2023-08-06T01:11:59;16.40;99.90
14182;DHT22;7171;50.936;6.764;2023-08-06T01:14:33;16.40;99.90
14182;DHT22;7171;50.936;6.764;2023-08-06T01:17:03;16.40;99.90
14182;DHT22;7171;50.936;6.764;2023-08-06T01:19:31;16.40;99.90
14182;DHT22;7171;50.936;6.764;2023-08-06T01:21:59;16.40;99.90
14182;DHT22;7171;50.936;6.764;2023-08-06T01:24:26;16.50;99.90
14182;DHT22;7171;50.936;6.764;2023-08-06T01:26:59;16.50;99.90
14182;DHT22;7171;50.936;6.764;2023-08-06T01:29:35;16.50;99.90
14182;DHT22;7171;50.936;6.764;2023-08-06T01:32:06;16.50;99.90
14182;DHT22;7171;50.936;6.764;2023-08-06T01:34:35;16.50;99.90
14182;DHT22;7171;50.936;6.764;2023-08-06T01:37:04;16.50;99.90
14182;DHT22;7171;50.936;6.764;2023-08-06T01:39:33;16.50;99.90
14182;DHT22;7171;50.936;6.764;2023-08-06T01:42:00;16.50;99.90
14182;DHT22;7171;50.936;6.764;2023-08-06T01:44:27;16.50;99.90
14182;DHT22;7171;50.936;6.764;2023-08-06T01:46:53;16.50;99.90
14182;DHT22;7171;50.936;6.764;2023-08-06T01:49:20;16.50;99.90
14182;DHT22;7171;50.936;6.764;2023-08-06T01:51:47;16.50;99.90
14182;DHT22;7171;50.936;6.764;2023-08-06T01:54:15;16.50;99.90
14182;DHT22;7171;50.936;6.764;2023-08-06T01:56:42;16.50;99.90
14182;DHT22;7171;50.936;6.764;2023-08-06T01:59:08;16.50;99.90
14182;DHT22;7171;50.936;6.764;2023-08-06T02:01:35;16.50;99.90
14182;DHT22;7171;50.936;6.764;2023-08-06T02:04:02;16.50;99.90
14182;DHT22;7171;50.936;6.764;2023-08-06T02:06:29;16.50;99.90
14182;DHT22;7171;50.936;6.764;2023-08-06T02:08:55;16.40;99.90
14182;DHT22;7171;50.936;6.764;2023-08-06T02:11:23;16.40;99.90
14182;DHT22;7171;50.936;6.764;2023-08-06T02:13:50;16.40;99.90
14182;DHT22;7171;50.936;6.764;2023-08-06T02:16:17;16.40;99.90
14182;DHT22;7171;50.936;6.764;2023-08-06T02:18:43;16.40;99.90
14182;DHT22;7171;50.936;6.764;2023-08-06T02:21:10;16.40;99.90
14182;DHT22;7171;50.936;6.764;2023-08-06T02:23:37;16.40;99.90
14182;DHT22;7171;50.936;6.764;2023-08-06T02:26:04;16.40;99.90
14182;DHT22;7171;50.936;6.764;2023-08-06T02:28:32;16.40;99.90
14182;DHT22;7171;50.936;6.764;2023-08-06T02:30:59;16.30;99.90
14182;DHT22;7171;50.936;6.764;2023-08-06T02:33:26;16.40;99.90
14182;DHT22;7171;50.936;6.764;2023-08-06T02:35:59;16.40;99.90
14182;DHT22;7171;50.936;6.764;2023-08-06T02:38:26;16.40;99.90
14182;DHT22;7171;50.936;6.764;2023-08-06T02:40:53;16.30;99.90
14182;DHT22;7171;50.936;6.764;2023-08-06T02:43:20;16.30;99.90
14182;DHT22;7171;50.936;6.764;2023-08-06T02:45:48;16.30;99.90
14182;DHT22;7171;50.936;6.764;2023-08-06T02:48:14;16.40;99.90
14182;DHT22;7171;50.936;6.764;2023-08-06T02:50:43;16.40;99.90
14182;DHT22;7171;50.936;6.764;2023-08-06T02:53:10;16.40;99.90
14182;DHT22;7171;50.936;6.764;2023-08-06T02:55:37;16.40;99.90
14182;DHT22;7171;50.936;6.764;2023-08-06T02:58:03;16.40;99.90
14182;DHT22;7171;50.936;6.764;2023-08-06T03:00:30;16.40;99.90
14182;DHT22;7171;50.936;6.764;2023-08-06T03:02:58;16.40;99.90
14182;DHT22;7171;50.936;6.764;2023-08-06T03:05:25;16.40;99.90
14182;DHT22;7171;50.936;6.764;2023-08-06T03:07:52;16.40;99.90
14182;DHT22;7171;50.936;6.764;2023-08-06T03:10:18;16.40;99.90
14182;DHT22;7171;50.936;6.764;2023-08-06T03:12:46;16.40;99.90
14182;DHT22;7171;50.936;6.764;2023-08-06T03:15:12;16.40;99.90
14182;DHT22;7171;50.936;6.764;2023-08-06T03:17:39;16.40;99.90
14182;DHT22;7171;50.936;6.764;2023-08-06T03:20:08;16.40;99.90
14182;DHT22;7171;50.936;6.764;2023-08-06T03:22:35;16.40;99.90
14182;DHT22;7171;50.936;6.764;2023-08-06T03:25:02;16.40;99.90
14182;DHT22;7171;50.936;6.764;2023-08-06T03:27:29;16.40;99.90
14182;DHT22;7171;50.936;6.764;2023-08-06T03:29:55;16.40;99.90
14182;DHT22;7171;50.936;6.764;2023-08-06T03:32:22;16.40;99.90
14182;DHT22;7171;50.936;6.764;2023-08-06T03:34:49;16.40;99.90
14182;DHT22;7171;50.936;6.764;2023-08-06T03:37:17;16.40;99.90
14182;DHT22;7171;50.936;6.764;2023-08-06T03:39:44;16.40;99.90
14182;DHT22;7171;50.936;6.764;2023-08-06T03:42:10;16.40;99.90
14182;DHT22;7171;50.936;6.764;2023-08-06T03:44:37;16.40;99.90
14182;DHT22;7171;50.936;6.764;2023-08-06T03:47:05;16.40;99.90
14182;DHT22;7171;50.936;6.764;2023-08-06T03:49:32;16.40;99.90
14182;DHT22;7171;50.936;6.764;2023-08-06T03:51:57;16.40;99.90
14182;DHT22;7171;50.936;6.764;2023-08-06T03:54:25;16.40;99.90
14182;DHT22;7171;50.936;6.764;2023-08-06T03:56:52;16.40;99.90
14182;DHT22;7171;50.936;6.764;2023-08-06T03:59:19;16.40;99.90
14182;DHT22;7171;50.936;6.764;2023-08-06T04:01:45;16.40;99.90
14182;DHT22;7171;50.936;6.764;2023-08-06T04:04:12;16.40;99.90
14182;DHT22;7171;50.936;6.764;2023-08-06T04:06:39;16.30;99.90
14182;DHT22;7171;50.936;6.764;2023-08-06T04:09:06;16.40;99.90
14182;DHT22;7171;50.936;6.764;2023-08-06T04:11:34;16.40;99.90
14182;DHT22;7171;50.936;6.764;2023-08-06T04:14:01;16.40;99.90
14182;DHT22;7171;50.936;6.764;2023-08-06T04:16:28;16.40;99.90
14182;DHT22;7171;50.936;6.764;2023-08-06T04:18:54;16.40;99.90
14182;DHT22;7171;50.936;6.764;2023-08-06T04:21:22;16.40;99.90
14182;DHT22;7171;50.936;6.764;2023-08-06T04:23:48;16.40;99.90
14182;DHT22;7171;50.936;6.764;2023-08-06T04:26:15;16.40;99.90
14182;DHT22;7171;50.936;6.764;2023-08-06T04:28:43;16.40;99.90
14182;DHT22;7171;50.936;6.764;2023-08-06T04:31:10;16.40;99.90
14182;DHT22;7171;50.936;6.764;2023-08-06T04:33:37;16.40;99.90
14182;DHT22;7171;50.936;6.764;2023-08-06T04:36:04;16.40;99.90
14182;DHT22;7171;50.936;6.764;2023-08-06T04:38:30;16.40;99.90
14182;DHT22;7171;50.936;6.764;2023-08-06T04:40:58;16.40;99.90
14182;DHT22;7171;50.936;6.764;2023-08-06T04:43:24;16.40;99.90
14182;DHT22;7171;50.936;6.764;2023-08-06T04:45:54;16.40;99.90
14182;DHT22;7171;50.936;6.764;2023-08-06T04:48:21;16.40;99.90
14182;DHT22;7171;50.936;6.764;2023-08-06T04:50:49;16.40;99.90
14182;DHT22;7171;50.936;6.764;2023-08-06T04:53:16;16.40;99.90
14182;DHT22;7171;50.936;6.764;2023-08-06T04:55:43;16.50;99.90
14182;DHT22;7171;50.936;6.764;2023-08-06T04:58:10;16.50;99.90
14182;DHT22;7171;50.936;6.764;2023-08-06T05:00:37;16.50;99.90
14182;DHT22;7171;50.936;6.764;2023-08-06T05:03:05;16.50;99.90
14182;DHT22;7171;50.936;6.764;2023-08-06T05:05:32;16.50;99.90
14182;DHT22;7171;50.936;6.764;2023-08-06T05:07:59;16.50;99.90
14182;DHT22;7171;50.936;6.764;2023-08-06T05:10:26;16.50;99.90
14182;DHT22;7171;50.936;6.764;2023-08-06T05:12:54;16.50;99.90
14182;DHT22;7171;50.936;6.764;2023-08-06T05:15:21;16.50;99.90
14182;DHT22;7171;50.936;6.764;2023-08-06T05:17:48;16.50;99.90
14182;DHT22;7171;50.936;6.764;2023-08-06T05:20:16;16.50;99.90
14182;DHT22;7171;50.936;6.764;2023-08-06T05:22:44;16.50;99.90
14182;DHT22;7171;50.936;6.764;2023-08-06T05:25:13;16.60;99.90
14182;DHT22;7171;50.936;6.764;2023-08-06T05:27:40;16.60;99.90
14182;DHT22;7171;50.936;6.764;2023-08-06T05:30:08;16.60;99.90
14182;DHT22;7171;50.936;6.764;2023-08-06T05:32:34;16.60;99.90
14182;DHT22;7171;50.936;6.764;2023-08-06T05:35:01;16.60;99.90
14182;DHT22;7171;50.936;6.764;2023-08-06T05:37:30;16.60;99.90
14182;DHT22;7171;50.936;6.764;2023-08-06T05:39:56;16.70;99.90
14182;DHT22;7171;50.936;6.764;2023-08-06T05:42:23;16.70;99.90
14182;DHT22;7171;50.936;6.764;2023-08-06T05:44:50;16.70;99.90
14182;DHT22;7171;50.936;6.764;2023-08-06T05:47:17;16.70;99.90
14182;DHT22;7171;50.936;6.764;2023-08-06T05:49:45;16.70;99.90
14182;DHT22;7171;50.936;6.764;2023-08-06T05:52:11;16.80;99.90
14182;DHT22;7171;50.936;6.764;2023-08-06T05:54:40;16.80;99.90
14182;DHT22;7171;50.936;6.764;2023-08-06T05:57:07;16.80;99.90
14182;DHT22;7171;50.936;6.764;2023-08-06T05:59:33;16.80;99.90
14182;DHT22;7171;50.936;6.764;2023-08-06T06:02:00;16.80;99.90
14182;DHT22;7171;50.936;6.764;2023-08-06T06:04:28;16.80;99.90
14182;DHT22;7171;50.936;6.764;2023-08-06T06:06:54;16.80;99.90
14182;DHT22;7171;50.936;6.764;2023-08-06T06:09:21;16.80;99.90
14182;DHT22;7171;50.936;6.764;2023-08-06T06:11:49;16.80;99.90
14182;DHT22;7171;50.936;6.764;2023-08-06T06:14:16;16.80;99.90
14182;DHT22;7171;50.936;6.764;2023-08-06T06:16:43;16.80;99.90
14182;DHT22;7171;50.936;6.764;2023-08-06T06:19:10;16.80;99.90
14182;DHT22;7171;50.936;6.764;2023-08-06T06:21:37;16.70;99.90
14182;DHT22;7171;50.936;6.764;2023-08-06T06:24:04;16.80;99.90
14182;DHT22;7171;50.936;6.764;2023-08-06T06:26:31;16.70;99.90
14182;DHT22;7171;50.936;6.764;2023-08-06T06:28:59;16.70;99.90
14182;DHT22;7171;50.936;6.764;2023-08-06T06:31:26;16.70;99.90
14182;DHT22;7171;50.936;6.764;2023-08-06T06:33:53;16.70;99.90
14182;DHT22;7171;50.936;6.764;2023-08-06T06:36:20;16.60;99.90
14182;DHT22;7171;50.936;6.764;2023-08-06T06:38:47;16.60;99.90
14182;DHT22;7171;50.936;6.764;2023-08-06T06:41:14;16.60;99.90
14182;DHT22;7171;50.936;6.764;2023-08-06T06:43:41;16.50;99.90
14182;DHT22;7171;50.936;6.764;2023-08-06T06:46:09;16.50;99.90
14182;DHT22;7171;50.936;6.764;2023-08-06T06:48:36;16.50;99.90
14182;DHT22;7171;50.936;6.764;2023-08-06T06:51:03;16.50;99.90
14182;DHT22;7171;50.936;6.764;2023-08-06T06:53:30;16.40;99.90
14182;DHT22;7171;50.936;6.764;2023-08-06T06:56:01;16.40;99.90
14182;DHT22;7171;50.936;6.764;2023-08-06T06:58:28;16.30;99.90
14182;DHT22;7171;50.936;6.764;2023-08-06T07:00:55;16.30;99.90
14182;DHT22;7171;50.936;6.764;2023-08-06T07:03:24;16.20;99.90
14182;DHT22;7171;50.936;6.764;2023-08-06T07:05:50;16.20;99.90
14182;DHT22;7171;50.936;6.764;2023-08-06T07:08:17;16.20;99.90
14182;DHT22;7171;50.936;6.764;2023-08-06T07:10:44;16.20;99.90
14182;DHT22;7171;50.936;6.764;2023-08-06T07:13:11;16.20;99.90
14182;DHT22;7171;50.936;6.764;2023-08-06T07:15:37;16.20;99.90
14182;DHT22;7171;50.936;6.764;2023-08-06T07:18:04;16.20;99.90
14182;DHT22;7171;50.936;6.764;2023-08-06T07:20:32;16.20;99.90
14182;DHT22;7171;50.936;6.764;2023-08-06T07:23:00;16.30;99.90
14182;DHT22;7171;50.936;6.764;2023-08-06T07:25:27;16.30;99.90
14182;DHT22;7171;50.936;6.764;2023-08-06T07:27:54;16.30;99.90
14182;DHT22;7171;50.936;6.764;2023-08-06T07:30:22;16.30;99.90
14182;DHT22;7171;50.936;6.764;2023-08-06T07:32:48;16.30;99.90
14182;DHT22;7171;50.936;6.764;2023-08-06T07:35:15;16.40;99.90
14182;DHT22;7171;50.936;6.764;2023-08-06T07:37:43;16.40;99.90
14182;DHT22;7171;50.936;6.764;2023-08-06T07:40:11;16.40;99.90
14182;DHT22;7171;50.936;6.764;2023-08-06T07:42:38;16.50;99.90
14182;DHT22;7171;50.936;6.764;2023-08-06T07:45:06;16.40;99.90
14182;DHT22;7171;50.936;6.764;2023-08-06T07:47:33;16.50;99.90
14182;DHT22;7171;50.936;6.764;2023-08-06T07:50:00;16.60;99.90
14182;DHT22;7171;50.936;6.764;2023-08-06T07:52:27;16.60;99.90
14182;DHT22;7171;50.936;6.764;2023-08-06T07:54:55;16.70;99.90
14182;DHT22;7171;50.936;6.764;2023-08-06T07:57:21;16.70;99.90
14182;DHT22;7171;50.936;6.764;2023-08-06T07:59:48;16.80;99.90
14182;DHT22;7171;50.936;6.764;2023-08-06T08:02:15;16.80;99.90
14182;DHT22;7171;50.936;6.764;2023-08-06T08:04:42;16.80;99.90
14182;DHT22;7171;50.936;6.764;2023-08-06T08:07:10;16.80;99.90
14182;DHT22;7171;50.936;6.764;2023-08-06T08:09:37;16.80;99.90
14182;DHT22;7171;50.936;6.764;2023-08-06T08:12:05;16.70;99.90
14182;DHT22;7171;50.936;6.764;2023-08-06T08:14:32;16.70;99.90
14182;DHT22;7171;50.936;6.764;2023-08-06T08:17:01;16.70;99.90
14182;DHT22;7171;50.936;6.764;2023-08-06T08:19:28;16.70;99.90
14182;DHT22;7171;50.936;6.764;2023-08-06T08:21:55;16.70;99.90
14182;DHT22;7171;50.936;6.764;2023-08-06T08:24:22;16.70;99.90
14182;DHT22;7171;50.936;6.764;2023-08-06T08:26:49;16.80;99.90
14182;DHT22;7171;50.936;6.764;2023-08-06T08:29:19;16.80;99.90
14182;DHT22;7171;50.936;6.764;2023-08-06T08:31:45;16.90;99.90
14182;DHT22;7171;50.936;6.764;2023-08-06T08:34:14;16.90;99.90
14182;DHT22;7171;50.936;6.764;2023-08-06T08:36:41;16.90;99.90
14182;DHT22;7171;50.936;6.764;2023-08-06T08:39:08;17.00;99.90
14182;DHT22;7171;50.936;6.764;2023-08-06T08:41:37;17.00;99.90
14182;DHT22;7171;50.936;6.764;2023-08-06T08:44:08;17.00;99.90
14182;DHT22;7171;50.936;6.764;2023-08-06T08:46:38;17.10;99.90
14182;DHT22;7171;50.936;6.764;2023-08-06T08:49:05;17.10;99.90
14182;DHT22;7171;50.936;6.764;2023-08-06T08:51:33;17.10;99.90
14182;DHT22;7171;50.936;6.764;2023-08-06T08:54:02;17.10;99.90
14182;DHT22;7171;50.936;6.764;2023-08-06T08:56:30;17.10;99.90
14182;DHT22;7171;50.936;6.764;2023-08-06T08:58:57;17.10;99.90
14182;DHT22;7171;50.936;6.764;2023-08-06T09:01:24;17.10;99.90
14182;DHT22;7171;50.936;6.764;2023-08-06T09:03:54;17.10;99.90
14182;DHT22;7171;50.936;6.764;2023-08-06T09:06:21;17.20;99.90
14182;DHT22;7171;50.936;6.764;2023-08-06T09:08:53;17.20;99.90
14182;DHT22;7171;50.936;6.764;2023-08-06T09:11:21;17.20;99.90
14182;DHT22;7171;50.936;6.764;2023-08-06T09:13:48;17.20;99.90
14182;DHT22;7171;50.936;6.764;2023-08-06T09:16:15;17.10;99.90
14182;DHT22;7171;50.936;6.764;2023-08-06T09:18:41;17.10;99.90
14182;DHT22;7171;50.936;6.764;2023-08-06T09:21:14;17.10;99.90
14182;DHT22;7171;50.936;6.764;2023-08-06T09:23:42;17.00;99.90
14182;DHT22;7171;50.936;6.764;2023-08-06T09:26:11;17.00;99.90
14182;DHT22;7171;50.936;6.764;2023-08-06T09:28:39;17.00;99.90
14182;DHT22;7171;50.936;6.764;2023-08-06T09:31:08;17.00;99.90
14182;DHT22;7171;50.936;6.764;2023-08-06T09:33:36;16.90;99.90
14182;DHT22;7171;50.936;6.764;2023-08-06T09:36:07;16.90;99.90
14182;DHT22;7171;50.936;6.764;2023-08-06T09:38:39;17.00;99.90
14182;DHT22;7171;50.936;6.764;2023-08-06T09:41:06;16.90;99.90
14182;DHT22;7171;50.936;6.764;2023-08-06T09:43:40;16.90;99.90
14182;DHT22;7171;50.936;6.764;2023-08-06T09:46:11;16.90;99.90
14182;DHT22;7171;50.936;6.764;2023-08-06T09:48:39;16.80;99.90
14182;DHT22;7171;50.936;6.764;2023-08-06T09:51:08;16.70;99.90
14182;DHT22;7171;50.936;6.764;2023-08-06T09:53:38;16.60;99.90
14182;DHT22;7171;50.936;6.764;2023-08-06T09:56:06;16.60;99.90
14182;DHT22;7171;50.936;6.764;2023-08-06T09:58:35;16.50;99.90
14182;DHT22;7171;50.936;6.764;2023-08-06T10:01:04;16.50;99.90
14182;DHT22;7171;50.936;6.764;2023-08-06T10:03:32;16.40;99.90
14182;DHT22;7171;50.936;6.764;2023-08-06T10:06:00;16.30;99.90
14182;DHT22;7171;50.936;6.764;2023-08-06T10:08:31;16.20;99.90
14182;DHT22;7171;50.936;6.764;2023-08-06T10:10:59;16.10;99.90
14182;DHT22;7171;50.936;6.764;2023-08-06T10:13:28;16.00;99.90
14182;DHT22;7171;50.936;6.764;2023-08-06T10:15:55;16.00;99.90
14182;DHT22;7171;50.936;6.764;2023-08-06T10:18:22;15.90;99.90
14182;DHT22;7171;50.936;6.764;2023-08-06T10:20:49;15.80;99.90
14182;DHT22;7171;50.936;6.764;2023-08-06T10:23:16;15.80;99.90
14182;DHT22;7171;50.936;6.764;2023-08-06T10:25:53;15.80;99.90
14182;DHT22;7171;50.936;6.764;2023-08-06T10:28:34;15.70;99.90
14182;DHT22;7171;50.936;6.764;2023-08-06T10:31:01;15.60;99.90
14182;DHT22;7171;50.936;6.764;2023-08-06T10:33:40;15.50;99.90
14182;DHT22;7171;50.936;6.764;2023-08-06T10:36:09;15.50;99.90
14182;DHT22;7171;50.936;6.764;2023-08-06T10:38:44;15.40;99.90
14182;DHT22;7171;50.936;6.764;2023-08-06T10:41:15;15.30;99.90
14182;DHT22;7171;50.936;6.764;2023-08-06T10:43:44;15.30;99.90
14182;DHT22;7171;50.936;6.764;2023-08-06T10:46:22;15.20;99.90
14182;DHT22;7171;50.936;6.764;2023-08-06T10:48:49;15.10;99.90
14182;DHT22;7171;50.936;6.764;2023-08-06T10:51:17;15.10;99.90
14182;DHT22;7171;50.936;6.764;2023-08-06T10:53:45;15.00;99.90
14182;DHT22;7171;50.936;6.764;2023-08-06T10:56:12;15.00;99.90
14182;DHT22;7171;50.936;6.764;2023-08-06T10:58:40;15.00;99.90
14182;DHT22;7171;50.936;6.764;2023-08-06T11:01:09;14.90;99.90
14182;DHT22;7171;50.936;6.764;2023-08-06T11:03:36;14.90;99.90
14182;DHT22;7171;50.936;6.764;2023-08-06T11:06:03;14.90;99.90
14182;DHT22;7171;50.936;6.764;2023-08-06T11:08:34;14.90;99.90
14182;DHT22;7171;50.936;6.764;2023-08-06T11:11:07;14.90;99.90
14182;DHT22;7171;50.936;6.764;2023-08-06T11:13:34;14.90;99.90
14182;DHT22;7171;50.936;6.764;2023-08-06T11:16:01;14.90;99.90
14182;DHT22;7171;50.936;6.764;2023-08-06T11:18:29;14.90;99.90
14182;DHT22;7171;50.936;6.764;2023-08-06T11:20:58;15.00;99.90
14182;DHT22;7171;50.936;6.764;2023-08-06T11:23:26;15.00;99.90
14182;DHT22;7171;50.936;6.764;2023-08-06T11:25:53;15.00;99.90
14182;DHT22;7171;50.936;6.764;2023-08-06T11:28:20;15.00;99.90
14182;DHT22;7171;50.936;6.764;2023-08-06T11:30:47;15.00;99.90
14182;DHT22;7171;50.936;6.764;2023-08-06T11:33:14;15.00;99.90
14182;DHT22;7171;50.936;6.764;2023-08-06T11:35:42;15.00;99.90
14182;DHT22;7171;50.936;6.764;2023-08-06T11:38:09;15.00;99.90
14182;DHT22;7171;50.936;6.764;2023-08-06T11:40:36;15.00;99.90
14182;DHT22;7171;50.936;6.764;2023-08-06T11:43:02;15.10;99.90
14182;DHT22;7171;50.936;6.764;2023-08-06T11:45:30;15.10;99.90
14182;DHT22;7171;50.936;6.764;2023-08-06T11:47:56;15.10;99.90
14182;DHT22;7171;50.936;6.764;2023-08-06T11:50:24;15.20;99.90
14182;DHT22;7171;50.936;6.764;2023-08-06T11:52:56;15.20;99.90
14182;DHT22;7171;50.936;6.764;2023-08-06T11:55:23;15.20;99.90
14182;DHT22;7171;50.936;6.764;2023-08-06T11:57:51;15.20;99.90
14182;DHT22;7171;50.936;6.764;2023-08-06T12:00:18;15.20;99.90
14182;DHT22;7171;50.936;6.764;2023-08-06T12:02:48;15.20;99.90
14182;DHT22;7171;50.936;6.764;2023-08-06T12:05:18;15.20;99.90
14182;DHT22;7171;50.936;6.764;2023-08-06T12:07:49;15.30;99.90
14182;DHT22;7171;50.936;6.764;2023-08-06T12:10:19;15.30;99.90
14182;DHT22;7171;50.936;6.764;2023-08-06T12:12:46;15.40;99.90
14182;DHT22;7171;50.936;6.764;2023-08-06T12:15:14;15.40;99.90
14182;DHT22;7171;50.936;6.764;2023-08-06T12:17:41;15.40;99.90
14182;DHT22;7171;50.936;6.764;2023-08-06T12:20:08;15.50;99.90
14182;DHT22;7171;50.936;6.764;2023-08-06T12:22:36;15.50;99.90
14182;DHT22;7171;50.936;6.764;2023-08-06T12:25:06;15.50;99.90
14182;DHT22;7171;50.936;6.764;2023-08-06T12:27:35;15.60;99.90
14182;DHT22;7171;50.936;6.764;2023-08-06T12:30:02;15.60;99.90
14182;DHT22;7171;50.936;6.764;2023-08-06T12:32:29;15.60;99.90
14182;DHT22;7171;50.936;6.764;2023-08-06T12:34:56;15.60;99.90
14182;DHT22;7171;50.936;6.764;2023-08-06T12:37:24;15.60;99.90
14182;DHT22;7171;50.936;6.764;2023-08-06T12:39:51;15.60;99.90
14182;DHT22;7171;50.936;6.764;2023-08-06T12:42:18;15.60;99.90
14182;DHT22;7171;50.936;6.764;2023-08-06T12:44:46;15.60;99.90
14182;DHT22;7171;50.936;6.764;2023-08-06T12:47:15;15.70;99.90
14182;DHT22;7171;50.936;6.764;2023-08-06T12:49:42;15.70;99.90
14182;DHT22;7171;50.936;6.764;2023-08-06T12:52:09;15.70;99.90
14182;DHT22;7171;50.936;6.764;2023-08-06T12:54:38;15.70;99.90
14182;DHT22;7171;50.936;6.764;2023-08-06T12:57:05;15.70;99.90
14182;DHT22;7171;50.936;6.764;2023-08-06T12:59:31;15.70;99.90
14182;DHT22;7171;50.936;6.764;2023-08-06T13:02:00;15.70;99.90
14182;DHT22;7171;50.936;6.764;2023-08-06T13:04:28;15.70;99.90
14182;DHT22;7171;50.936;6.764;2023-08-06T13:06:54;15.60;99.90
14182;DHT22;7171;50.936;6.764;2023-08-06T13:09:21;15.60;99.90
14182;DHT22;7171;50.936;6.764;2023-08-06T13:11:48;15.60;99.90
14182;DHT22;7171;50.936;6.764;2023-08-06T13:14:16;15.70;99.90
14182;DHT22;7171;50.936;6.764;2023-08-06T13:16:43;15.70;99.90
14182;DHT22;7171;50.936;6.764;2023-08-06T13:19:12;15.70;99.90
14182;DHT22;7171;50.936;6.764;2023-08-06T13:21:59;15.70;99.90
14182;DHT22;7171;50.936;6.764;2023-08-06T13:24:27;15.70;99.90
14182;DHT22;7171;50.936;6.764;2023-08-06T13:26:54;15.70;99.90
14182;DHT22;7171;50.936;6.764;2023-08-06T13:29:21;15.70;99.90
14182;DHT22;7171;50.936;6.764;2023-08-06T13:31:47;15.70;99.90
14182;DHT22;7171;50.936;6.764;2023-08-06T13:34:15;15.70;99.90
14182;DHT22;7171;50.936;6.764;2023-08-06T13:36:43;15.60;99.90
14182;DHT22;7171;50.936;6.764;2023-08-06T13:39:10;15.70;99.90
14182;DHT22;7171;50.936;6.764;2023-08-06T13:41:37;15.70;99.90
14182;DHT22;7171;50.936;6.764;2023-08-06T13:44:04;15.70;99.90
14182;DHT22;7171;50.936;6.764;2023-08-06T13:46:32;15.70;99.90
14182;DHT22;7171;50.936;6.764;2023-08-06T13:48:59;15.70;99.90
14182;DHT22;7171;50.936;6.764;2023-08-06T13:51:27;15.80;99.90
14182;DHT22;7171;50.936;6.764;2023-08-06T13:53:54;15.80;99.90
14182;DHT22;7171;50.936;6.764;2023-08-06T13:56:23;15.80;99.90
14182;DHT22;7171;50.936;6.764;2023-08-06T13:58:49;15.80;99.90
14182;DHT22;7171;50.936;6.764;2023-08-06T14:01:17;15.80;99.90
14182;DHT22;7171;50.936;6.764;2023-08-06T14:03:45;15.80;99.90
14182;DHT22;7171;50.936;6.764;2023-08-06T14:06:11;15.80;99.90
14182;DHT22;7171;50.936;6.764;2023-08-06T14:08:40;15.80;99.90
14182;DHT22;7171;50.936;6.764;2023-08-06T14:11:06;15.80;99.90
14182;DHT22;7171;50.936;6.764;2023-08-06T14:13:33;15.80;99.90
14182;DHT22;7171;50.936;6.764;2023-08-06T14:16:00;15.80;99.90
14182;DHT22;7171;50.936;6.764;2023-08-06T14:18:27;15.80;99.90
14182;DHT22;7171;50.936;6.764;2023-08-06T14:20:54;15.70;99.90
14182;DHT22;7171;50.936;6.764;2023-08-06T14:23:21;15.70;99.90
14182;DHT22;7171;50.936;6.764;2023-08-06T14:25:49;15.80;99.90
14182;DHT22;7171;50.936;6.764;2023-08-06T14:28:15;15.80;99.90
14182;DHT22;7171;50.936;6.764;2023-08-06T14:30:42;15.80;99.90
14182;DHT22;7171;50.936;6.764;2023-08-06T14:33:09;15.80;99.90
14182;DHT22;7171;50.936;6.764;2023-08-06T14:35:36;15.80;99.90
14182;DHT22;7171;50.936;6.764;2023-08-06T14:38:02;15.90;99.90
14182;DHT22;7171;50.936;6.764;2023-08-06T14:40:29;15.90;99.90
14182;DHT22;7171;50.936;6.764;2023-08-06T14:43:01;15.90;99.90
14182;DHT22;7171;50.936;6.764;2023-08-06T14:45:28;15.90;99.90
14182;DHT22;7171;50.936;6.764;2023-08-06T14:47:55;16.00;99.90
14182;DHT22;7171;50.936;6.764;2023-08-06T14:50:22;16.00;99.90
14182;DHT22;7171;50.936;6.764;2023-08-06T14:52:48;16.00;99.90
14182;DHT22;7171;50.936;6.764;2023-08-06T14:55:22;16.10;99.90
14182;DHT22;7171;50.936;6.764;2023-08-06T14:57:49;16.10;99.90
14182;DHT22;7171;50.936;6.764;2023-08-06T15:00:18;16.20;99.90
14182;DHT22;7171;50.936;6.764;2023-08-06T15:02:45;16.20;99.90
14182;DHT22;7171;50.936;6.764;2023-08-06T15:05:11;16.10;99.90
14182;DHT22;7171;50.936;6.764;2023-08-06T15:07:38;16.20;99.90
14182;DHT22;7171;50.936;6.764;2023-08-06T15:10:06;16.20;99.90
14182;DHT22;7171;50.936;6.764;2023-08-06T15:12:33;16.20;99.90
14182;DHT22;7171;50.936;6.764;2023-08-06T15:15:00;16.20;99.90
14182;DHT22;7171;50.936;6.764;2023-08-06T15:17:29;16.20;99.90
14182;DHT22;7171;50.936;6.764;2023-08-06T15:19:56;16.20;99.90
14182;DHT22;7171;50.936;6.764;2023-08-06T15:22:24;16.20;99.90
14182;DHT22;7171;50.936;6.764;2023-08-06T15:24:50;16.20;99.90
14182;DHT22;7171;50.936;6.764;2023-08-06T15:27:17;16.30;99.90
14182;DHT22;7171;50.936;6.764;2023-08-06T15:29:44;16.30;99.90
14182;DHT22;7171;50.936;6.764;2023-08-06T15:32:11;16.30;99.90
14182;DHT22;7171;50.936;6.764;2023-08-06T15:34:40;16.30;99.90
14182;DHT22;7171;50.936;6.764;2023-08-06T15:37:07;16.40;99.90
14182;DHT22;7171;50.936;6.764;2023-08-06T15:39:34;16.40;99.90
14182;DHT22;7171;50.936;6.764;2023-08-06T15:42:00;16.40;99.90
14182;DHT22;7171;50.936;6.764;2023-08-06T15:44:28;16.40;99.90
14182;DHT22;7171;50.936;6.764;2023-08-06T15:46:55;16.40;99.90